Time;durP1;ratioP1;P1;durP2;ratioP2;P2;SDS_P1;SDS_P2;PMS_P1;PMS_P2;Temp;Humidity;BMP_temperature;BMP_pressure;BME280_temperature;BME280_humidity;BME280_pressure;Samples;Min_cycle;Max_cycle;Signal;HPM_P1;HPM_P2
2023/03/25 00:02:14;;;;;;;19.13;2.50;;;;;;;;;;5114189;28;20039;-77
2023/03/25 00:04:40;;;;;;;12.32;2.03;;;;;;;;;;5115766;28;20038;-77
2023/03/25 00:07:05;;;;;;;23.40;2.42;;;;;;;;;;5114989;28;20043;-77
2023/03/25 00:09:31;;;;;;;12.13;2.38;;;;;;;;;;5115278;28;20044;-77
2023/03/25 00:11:56;;;;;;;13.55;2.45;;;;;;;;;;5114166;28;20511;-77
2023/03/25 00:14:23;;;;;;;11.73;1.75;;;;;;;;;;5115738;28;20027;-77
2023/03/25 00:16:51;;;;;;;22.65;3.40;;;;;;;;;;5115100;28;20036;-76
2023/03/25 00:19:20;;;;;;;17.33;2.05;;;;;;;;;;5115323;28;20111;-77
2023/03/25 00:21:49;;;;;;;9.85;1.02;;;;;;;;;;5113826;28;20042;-77
2023/03/25 00:24:18;;;;;;;9.38;1.77;;;;;;;;;;5114062;28;20114;-77
2023/03/25 00:26:47;;;;;;;6.32;1.42;;;;;;;;;;5111754;28;20033;-78
2023/03/25 00:29:16;;;;;;;19.15;2.17;;;;;;;;;;5115754;28;20437;-77
2023/03/25 00:31:42;;;;;;;5.85;1.50;;;;;;;;;;5114553;28;20097;-77
2023/03/25 00:34:08;;;;;;;12.52;1.83;;;;;;;;;;5108757;28;20039;-77
2023/03/25 00:36:36;;;;;;;12.77;1.80;;;;;;;;;;5111886;28;20039;-77
2023/03/25 00:39:05;;;;;;;19.27;1.92;;;;;;;;;;5114483;28;20043;-77
2023/03/25 00:41:31;;;;;;;11.32;1.77;;;;;;;;;;5113764;28;20111;-77
2023/03/25 00:43:58;;;;;;;11.63;1.70;;;;;;;;;;5114725;28;20078;-77
2023/03/25 00:46:26;;;;;;;7.43;1.13;;;;;;;;;;5113226;28;20047;-78
2023/03/25 00:48:52;;;;;;;11.73;2.30;;;;;;;;;;5114860;28;20038;-77
2023/03/25 00:51:20;;;;;;;8.02;1.58;;;;;;;;;;5108560;28;20031;-79
2023/03/25 00:53:47;;;;;;;9.05;2.33;;;;;;;;;;5113015;28;20066;-77
2023/03/25 00:56:13;;;;;;;11.10;2.13;;;;;;;;;;5114216;28;20039;-77
2023/03/25 00:58:38;;;;;;;11.48;2.15;;;;;;;;;;5111485;28;20039;-76
2023/03/25 01:01:12;;;;;;;10.07;2.85;;;;;;;;;;5107737;28;20070;-77
2023/03/25 01:03:38;;;;;;;;;;;;;;;;;;5110592;28;20038;-78
2023/03/25 01:06:12;;;;;;;19.65;2.25;;;;;;;;;;5113253;28;19922;-77
2023/03/25 01:08:38;;;;;;;16.73;2.47;;;;;;;;;;5113082;28;20111;-77
2023/03/25 01:11:05;;;;;;;18.77;1.60;;;;;;;;;;5112879;28;20047;-77
2023/03/25 01:13:30;;;;;;;18.20;2.70;;;;;;;;;;5104729;28;20074;-77
2023/03/25 01:15:55;;;;;;;16.50;2.47;;;;;;;;;;5100525;28;20067;-77
2023/03/25 01:18:21;;;;;;;16.23;2.20;;;;;;;;;;5114018;28;20176;-77
2023/03/25 01:20:46;;;;;;;16.83;2.45;;;;;;;;;;5113699;28;20122;-78
2023/03/25 01:23:12;;;;;;;13.95;1.60;;;;;;;;;;5114014;28;20058;-77
2023/03/25 01:25:37;;;;;;;11.73;1.80;;;;;;;;;;5108370;28;20039;-78
2023/03/25 01:28:03;;;;;;;12.18;1.63;;;;;;;;;;5114023;28;20050;-77
2023/03/25 01:30:29;;;;;;;18.48;2.28;;;;;;;;;;5113752;28;20035;-77
2023/03/25 01:32:55;;;;;;;10.85;1.85;;;;;;;;;;5113799;28;20032;-77
2023/03/25 01:35:20;;;;;;;14.70;1.80;;;;;;;;;;5111478;27;20114;-77
2023/03/25 01:37:46;;;;;;;14.55;2.28;;;;;;;;;;5105699;28;20030;-78
2023/03/25 01:40:18;;;;;;;15.52;2.05;;;;;;;;;;5113848;28;20060;-77
2023/03/25 01:42:43;;;;;;;15.73;2.58;;;;;;;;;;5113601;28;20059;-77
2023/03/25 01:45:20;;;;;;;14.07;2.00;;;;;;;;;;5109873;28;20086;-77
2023/03/25 01:47:47;;;;;;;12.63;1.88;;;;;;;;;;5096861;28;20063;-77
2023/03/25 01:50:13;;;;;;;11.35;1.77;;;;;;;;;;5104771;28;20028;-77
2023/03/25 01:52:41;;;;;;;16.73;2.22;;;;;;;;;;5108314;28;20115;-77
2023/03/25 01:55:06;;;;;;;14.82;1.85;;;;;;;;;;5111208;28;20550;-77
2023/03/25 01:57:32;;;;;;;15.20;2.30;;;;;;;;;;5101533;28;20067;-77
2023/03/25 01:59:58;;;;;;;11.48;1.85;;;;;;;;;;5111936;28;20123;-77
2023/03/25 02:02:35;;;;;;;16.02;1.92;;;;;;;;;;5107622;28;20044;-77
2023/03/25 02:05:16;;;;;;;14.25;2.15;;;;;;;;;;5109372;28;20047;-77
2023/03/25 02:07:45;;;;;;;11.98;1.77;;;;;;;;;;5111413;28;20119;-77
2023/03/25 02:10:11;;;;;;;17.38;2.28;;;;;;;;;;5117610;28;20084;-77
2023/03/25 02:12:37;;;;;;;11.25;1.85;;;;;;;;;;5119917;27;20040;-76
2023/03/25 02:15:05;;;;;;;9.18;2.25;;;;;;;;;;5119993;27;20042;-77
2023/03/25 02:18:02;;;;;;;8.95;1.50;;;;;;;;;;5118458;28;20032;-77
2023/03/25 02:20:35;;;;;;;10.90;2.03;;;;;;;;;;5118382;28;20532;-77
2023/03/25 02:23:20;;;;;;;9.63;2.28;;;;;;;;;;5118925;28;20035;-77
2023/03/25 02:26:10;;;;;;;4.07;1.20;;;;;;;;;;5116364;28;20038;-77
2023/03/25 02:28:51;;;;;;;5.97;1.70;;;;;;;;;;5104509;28;20035;-77
2023/03/25 02:31:35;;;;;;;11.63;1.48;;;;;;;;;;5106439;27;20124;-77
2023/03/25 02:34:34;;;;;;;8.93;1.77;;;;;;;;;;5110194;28;20063;-77
2023/03/25 02:37:17;;;;;;;12.80;2.00;;;;;;;;;;5108133;28;20042;-77
2023/03/25 02:39:51;;;;;;;14.10;1.75;;;;;;;;;;5119754;28;20040;-78
2023/03/25 02:42:25;;;;;;;11.95;2.03;;;;;;;;;;5117179;28;20043;-77
2023/03/25 02:45:11;;;;;;;15.65;2.08;;;;;;;;;;5108006;28;20036;-77
2023/03/25 02:47:41;;;;;;;14.18;1.83;;;;;;;;;;5109806;28;20036;-77
2023/03/25 02:50:12;;;;;;;10.48;1.60;;;;;;;;;;5093812;28;20179;-78
2023/03/25 02:52:41;;;;;;;15.90;2.42;;;;;;;;;;5112803;28;20032;-78
2023/03/25 02:55:10;;;;;;;10.52;1.50;;;;;;;;;;5111841;28;20471;-77
2023/03/25 02:57:41;;;;;;;8.95;2.25;;;;;;;;;;5117867;28;20127;-77
2023/03/25 03:00:14;;;;;;;14.05;1.75;;;;;;;;;;5114808;28;20047;-78
2023/03/25 03:02:43;;;;;;;12.10;2.60;;;;;;;;;;5109541;28;20050;-78
2023/03/25 03:05:28;;;;;;;16.80;2.25;;;;;;;;;;5114570;28;20067;-78
2023/03/25 03:08:21;;;;;;;17.35;2.08;;;;;;;;;;5108357;27;20517;-77
2023/03/25 03:11:05;;;;;;;16.45;1.98;;;;;;;;;;5114008;28;20044;-77
2023/03/25 03:13:52;;;;;;;9.48;2.08;;;;;;;;;;5112692;27;20043;-77
2023/03/25 03:16:35;;;;;;;9.60;1.83;;;;;;;;;;5106796;28;20042;-78
2023/03/25 03:19:03;;;;;;;9.98;1.55;;;;;;;;;;5116685;28;20039;-78
2023/03/25 03:21:40;;;;;;;9.15;1.63;;;;;;;;;;5115765;28;20075;-78
2023/03/25 03:24:18;;;;;;;4.70;1.05;;;;;;;;;;5080683;28;20048;-77
2023/03/25 03:26:49;;;;;;;9.63;1.20;;;;;;;;;;5116160;28;20046;-78
2023/03/25 03:29:44;;;;;;;7.35;1.67;;;;;;;;;;5115147;28;20063;-77
2023/03/25 03:32:14;;;;;;;9.68;1.80;;;;;;;;;;5107122;28;20047;-77
2023/03/25 03:34:47;;;;;;;15.30;2.20;;;;;;;;;;5114467;28;20032;-78
2023/03/25 03:37:15;;;;;;;10.30;1.00;;;;;;;;;;5110837;28;20397;-78
2023/03/25 03:39:42;;;;;;;9.52;1.65;;;;;;;;;;5114824;28;20039;-77
2023/03/25 03:42:22;;;;;;;11.10;2.17;;;;;;;;;;5114822;28;20071;-78
2023/03/25 03:44:55;;;;;;;12.88;2.22;;;;;;;;;;5103665;28;20058;-78
2023/03/25 03:47:25;;;;;;;11.63;1.80;;;;;;;;;;5106723;28;20503;-78
2023/03/25 03:49:55;;;;;;;6.88;1.73;;;;;;;;;;5107089;28;20035;-77
2023/03/25 03:52:30;;;;;;;14.20;2.15;;;;;;;;;;5102793;28;20495;-78
2023/03/25 03:54:59;;;;;;;13.30;1.95;;;;;;;;;;5113916;28;20388;-77
2023/03/25 03:57:41;;;;;;;7.05;1.65;;;;;;;;;;5113477;28;20039;-77
2023/03/25 04:00:10;;;;;;;9.27;1.40;;;;;;;;;;5114190;28;20103;-78
2023/03/25 04:02:49;;;;;;;18.23;2.08;;;;;;;;;;5104683;28;20032;-78
2023/03/25 04:05:17;;;;;;;18.88;2.30;;;;;;;;;;5115359;28;20555;-78
2023/03/25 04:07:53;;;;;;;14.20;2.10;;;;;;;;;;5110302;28;20028;-78
2023/03/25 04:10:39;;;;;;;9.38;1.52;;;;;;;;;;5105221;28;20403;-77
2023/03/25 04:13:08;;;;;;;12.68;2.05;;;;;;;;;;5108993;28;20081;-78
2023/03/25 04:15:35;;;;;;;7.13;1.63;;;;;;;;;;5114060;28;20039;-78
2023/03/25 04:18:02;;;;;;;9.77;1.83;;;;;;;;;;5108988;28;20032;-78
2023/03/25 04:20:32;;;;;;;11.90;1.95;;;;;;;;;;5115357;28;20039;-78
2023/03/25 04:22:58;;;;;;;8.98;1.67;;;;;;;;;;5114969;28;20043;-78
2023/03/25 04:25:24;;;;;;;13.85;2.33;;;;;;;;;;5110647;28;20504;-78
2023/03/25 04:27:52;;;;;;;10.85;1.55;;;;;;;;;;5114978;28;20044;-77
2023/03/25 04:30:18;;;;;;;15.15;1.45;;;;;;;;;;5113887;28;20035;-78
2023/03/25 04:32:47;;;;;;;9.85;2.05;;;;;;;;;;5113650;28;20031;-77
2023/03/25 04:35:14;;;;;;;16.38;1.83;;;;;;;;;;5108347;28;20384;-78
2023/03/25 04:37:40;;;;;;;10.20;1.95;;;;;;;;;;5103346;28;20425;-77
2023/03/25 04:40:08;;;;;;;7.55;2.00;;;;;;;;;;5114019;28;20039;-77
2023/03/25 04:42:36;;;;;;;10.98;2.03;;;;;;;;;;5114933;28;20032;-77
2023/03/25 04:45:05;;;;;;;8.27;1.88;;;;;;;;;;5109781;28;20475;-77
2023/03/25 04:47:30;;;;;;;19.30;3.08;;;;;;;;;;5113091;28;20047;-76
2023/03/25 04:49:56;;;;;;;15.23;2.28;;;;;;;;;;5100444;28;20027;-76
2023/03/25 04:52:21;;;;;;;20.80;2.05;;;;;;;;;;5105397;28;20439;-77
2023/03/25 04:54:47;;;;;;;15.52;2.22;;;;;;;;;;5114465;28;20100;-77
2023/03/25 04:57:12;;;;;;;23.40;2.28;;;;;;;;;;5110147;28;20070;-77
2023/03/25 04:59:37;;;;;;;20.95;2.78;;;;;;;;;;5113380;28;20050;-77
2023/03/25 05:02:11;;;;;;;17.88;2.47;;;;;;;;;;5109447;28;20039;-77
2023/03/25 05:04:40;;;;;;;;;;;;;;;;;;5099397;28;20051;-76
2023/03/25 05:07:06;;;;;;;16.40;2.63;;;;;;;;;;5099017;28;19981;-76
2023/03/25 05:09:31;;;;;;;10.55;2.22;;;;;;;;;;5105454;28;20059;-77
2023/03/25 05:11:57;;;;;;;21.05;2.75;;;;;;;;;;5113100;28;20028;-76
2023/03/25 05:14:22;;;;;;;19.27;2.67;;;;;;;;;;5114497;28;20372;-76
2023/03/25 05:16:48;;;;;;;23.35;3.25;;;;;;;;;;5112106;28;20085;-77
2023/03/25 05:19:14;;;;;;;21.27;2.30;;;;;;;;;;5106396;28;20035;-77
2023/03/25 05:21:41;;;;;;;28.88;2.80;;;;;;;;;;5112619;28;20032;-76
2023/03/25 05:24:12;;;;;;;14.50;2.25;;;;;;;;;;5112969;28;20134;-77
2023/03/25 05:26:38;;;;;;;8.00;1.88;;;;;;;;;;5100101;28;20028;-77
2023/03/25 05:29:14;;;;;;;21.83;2.85;;;;;;;;;;5109999;28;20039;-77
2023/03/25 05:31:40;;;;;;;7.97;2.05;;;;;;;;;;5109164;28;20110;-76
2023/03/25 05:34:07;;;;;;;17.40;2.40;;;;;;;;;;5110569;28;20045;-77
2023/03/25 05:36:33;;;;;;;15.88;2.17;;;;;;;;;;5103249;28;20376;-76
2023/03/25 05:38:58;;;;;;;12.93;1.90;;;;;;;;;;5110054;28;20035;-77
2023/03/25 05:41:37;;;;;;;17.33;1.90;;;;;;;;;;5113869;28;20471;-77
2023/03/25 05:44:04;;;;;;;15.13;1.88;;;;;;;;;;5112056;28;20085;-76
2023/03/25 05:46:29;;;;;;;11.70;2.20;;;;;;;;;;5113054;28;20043;-77
2023/03/25 05:48:56;;;;;;;12.88;2.00;;;;;;;;;;5100067;28;20033;-77
2023/03/25 05:51:23;;;;;;;11.75;2.75;;;;;;;;;;5113427;28;20081;-77
2023/03/25 05:53:49;;;;;;;13.35;2.60;;;;;;;;;;5112234;28;20127;-76
2023/03/25 05:56:16;;;;;;;9.07;1.55;;;;;;;;;;5112277;28;20067;-77
2023/03/25 05:58:49;;;;;;;10.35;2.10;;;;;;;;;;5108701;28;20118;-76
2023/03/25 06:01:16;;;;;;;14.35;2.03;;;;;;;;;;5112465;28;20028;-77
2023/03/25 06:03:43;;;;;;;16.35;4.72;;;;;;;;;;5110139;28;20059;-77
2023/03/25 06:06:12;;;;;;;13.57;1.58;;;;;;;;;;5113465;28;20040;-77
2023/03/25 06:08:57;;;;;;;13.55;1.58;;;;;;;;;;5112142;28;20071;-76
2023/03/25 06:11:22;;;;;;;15.55;2.25;;;;;;;;;;5111744;28;20508;-78
2023/03/25 06:13:48;;;;;;;9.52;1.38;;;;;;;;;;5112443;28;20035;-77
2023/03/25 06:16:19;;;;;;;8.18;1.77;;;;;;;;;;5113347;28;20551;-76
2023/03/25 06:18:49;;;;;;;8.57;1.80;;;;;;;;;;5111964;28;20502;-76
2023/03/25 06:21:16;;;;;;;6.30;1.08;;;;;;;;;;5112088;28;20035;-76
2023/03/25 06:23:41;;;;;;;7.30;1.80;;;;;;;;;;5095003;28;20156;-77
2023/03/25 06:26:07;;;;;;;5.95;1.33;;;;;;;;;;5113049;28;20479;-76
2023/03/25 06:28:33;;;;;;;11.32;1.98;;;;;;;;;;5113021;28;20116;-76
2023/03/25 06:30:58;;;;;;;6.05;1.17;;;;;;;;;;5102649;28;20071;-76
2023/03/25 06:33:24;;;;;;;9.77;0.95;;;;;;;;;;5097206;28;20038;-76
2023/03/25 06:35:52;;;;;;;12.15;1.48;;;;;;;;;;5113055;28;20032;-76
2023/03/25 06:38:18;;;;;;;4.40;1.63;;;;;;;;;;5104716;28;20390;-76
2023/03/25 06:40:44;;;;;;;2.83;0.98;;;;;;;;;;5112284;28;20423;-76
2023/03/25 06:43:09;;;;;;;5.50;1.20;;;;;;;;;;5103336;28;20141;-76
2023/03/25 06:45:35;;;;;;;5.22;1.20;;;;;;;;;;5112885;28;20529;-76
2023/03/25 06:48:00;;;;;;;5.72;1.10;;;;;;;;;;5112895;28;20038;-76
2023/03/25 06:50:26;;;;;;;6.85;1.23;;;;;;;;;;5112847;28;20046;-77
2023/03/25 06:52:51;;;;;;;6.65;1.25;;;;;;;;;;5106847;28;20078;-76
2023/03/25 06:55:17;;;;;;;10.25;1.00;;;;;;;;;;5111571;28;20048;-77
2023/03/25 06:57:42;;;;;;;6.82;1.45;;;;;;;;;;5110308;28;20035;-76
2023/03/25 07:00:10;;;;;;;6.20;1.30;;;;;;;;;;5115342;28;20039;-76
2023/03/25 07:02:36;;;;;;;6.18;1.23;;;;;;;;;;5116653;28;20032;-76
2023/03/25 07:05:02;;;;;;;3.05;0.80;;;;;;;;;;5105444;28;20040;-77
2023/03/25 07:07:28;;;;;;;5.57;1.35;;;;;;;;;;5116145;28;20040;-77
2023/03/25 07:09:54;;;;;;;4.22;1.10;;;;;;;;;;5116681;28;20027;-77
2023/03/25 07:12:23;;;;;;;10.55;1.52;;;;;;;;;;5116675;28;20039;-77
2023/03/25 07:14:56;;;;;;;7.28;1.27;;;;;;;;;;5112176;28;20055;-77
2023/03/25 07:17:22;;;;;;;4.75;1.23;;;;;;;;;;5115118;28;20092;-77
2023/03/25 07:19:47;;;;;;;7.78;1.10;;;;;;;;;;5113640;28;20036;-77
2023/03/25 07:22:13;;;;;;;6.88;1.60;;;;;;;;;;5115221;28;20032;-77
2023/03/25 07:24:39;;;;;;;8.82;1.55;;;;;;;;;;5113668;28;20035;-78
2023/03/25 07:27:04;;;;;;;7.82;1.23;;;;;;;;;;5115248;28;20051;-76
2023/03/25 07:29:30;;;;;;;7.22;1.60;;;;;;;;;;5114792;28;20023;-77
2023/03/25 07:31:55;;;;;;;8.82;1.27;;;;;;;;;;5115116;28;20463;-78
2023/03/25 07:34:20;;;;;;;11.38;1.90;;;;;;;;;;5114900;28;20035;-79
2023/03/25 07:36:46;;;;;;;7.00;1.20;;;;;;;;;;5114927;28;20116;-79
2023/03/25 07:39:11;;;;;;;8.20;1.30;;;;;;;;;;5115888;28;20032;-78
2023/03/25 07:41:37;;;;;;;11.93;1.55;;;;;;;;;;5115464;28;20039;-79
2023/03/25 07:44:02;;;;;;;5.20;1.42;;;;;;;;;;5116098;27;20031;-78
2023/03/25 07:46:28;;;;;;;6.13;1.08;;;;;;;;;;5115617;28;20539;-78
2023/03/25 07:48:53;;;;;;;5.90;1.13;;;;;;;;;;5110953;28;20096;-77
2023/03/25 07:51:19;;;;;;;7.85;1.73;;;;;;;;;;5110868;28;20066;-78
2023/03/25 07:53:45;;;;;;;6.38;1.85;;;;;;;;;;5112685;28;20063;-77
2023/03/25 07:56:11;;;;;;;7.35;1.20;;;;;;;;;;5110812;28;20047;-78
2023/03/25 07:58:38;;;;;;;5.18;1.25;;;;;;;;;;5112027;28;20406;-79
2023/03/25 08:01:04;;;;;;;5.15;1.10;;;;;;;;;;5114894;28;20044;-78
2023/03/25 08:03:30;;;;;;;6.85;1.75;;;;;;;;;;5112524;28;20044;-78
2023/03/25 08:05:59;;;;;;;4.40;1.20;;;;;;;;;;5114689;28;20038;-79
2023/03/25 08:08:25;;;;;;;4.05;1.10;;;;;;;;;;5080961;28;20108;-79
2023/03/25 08:10:50;;;;;;;4.82;1.27;;;;;;;;;;5109564;28;20474;-79
2023/03/25 08:13:15;;;;;;;5.47;1.65;;;;;;;;;;5115484;28;20050;-79
2023/03/25 08:15:41;;;;;;;5.40;1.30;;;;;;;;;;5113979;28;20459;-79
2023/03/25 08:18:06;;;;;;;4.13;1.65;;;;;;;;;;5112110;28;20047;-79
2023/03/25 08:20:33;;;;;;;6.80;1.35;;;;;;;;;;5112357;28;20032;-79
2023/03/25 08:22:59;;;;;;;5.95;1.42;;;;;;;;;;5114349;28;20375;-79
2023/03/25 08:25:24;;;;;;;5.25;1.30;;;;;;;;;;5115172;28;20032;-79
2023/03/25 08:27:50;;;;;;;4.78;1.10;;;;;;;;;;5109414;28;20031;-79
2023/03/25 08:30:16;;;;;;;3.78;1.15;;;;;;;;;;5109336;28;20909;-80
2023/03/25 08:32:44;;;;;;;2.78;1.08;;;;;;;;;;5104886;28;20036;-80
2023/03/25 08:35:11;;;;;;;4.90;1.17;;;;;;;;;;5113865;28;20027;-80
2023/03/25 08:37:36;;;;;;;3.47;1.05;;;;;;;;;;5113890;28;20399;-80
2023/03/25 08:40:07;;;;;;;4.97;1.20;;;;;;;;;;5115136;28;20036;-80
2023/03/25 08:42:33;;;;;;;3.10;0.82;;;;;;;;;;5115113;28;20040;-80
2023/03/25 08:44:58;;;;;;;2.15;0.95;;;;;;;;;;5105905;28;20372;-80
2023/03/25 08:47:24;;;;;;;3.17;1.10;;;;;;;;;;5111195;28;20031;-80
2023/03/25 08:49:49;;;;;;;3.80;1.13;;;;;;;;;;5108397;28;20036;-80
2023/03/25 08:52:15;;;;;;;4.32;1.20;;;;;;;;;;5104426;28;20391;-80
2023/03/25 08:54:40;;;;;;;3.55;0.85;;;;;;;;;;5103486;28;20100;-80
2023/03/25 08:57:06;;;;;;;5.28;1.25;;;;;;;;;;5105567;28;20032;-80
2023/03/25 08:59:31;;;;;;;2.35;0.95;;;;;;;;;;5112462;28;20487;-80
2023/03/25 09:01:57;;;;;;;3.63;0.98;;;;;;;;;;5109574;28;20435;-80
2023/03/25 09:04:22;;;;;;;4.13;1.02;;;;;;;;;;5111100;28;20049;-80
2023/03/25 09:06:48;;;;;;;4.53;0.93;;;;;;;;;;5104029;28;20047;-80
2023/03/25 09:09:14;;;;;;;6.97;1.08;;;;;;;;;;5109583;28;20051;-79
2023/03/25 09:11:40;;;;;;;4.63;1.38;;;;;;;;;;5111691;28;21381;-79
2023/03/25 09:14:05;;;;;;;5.60;1.38;;;;;;;;;;5106212;28;20035;-79
2023/03/25 09:16:31;;;;;;;4.10;0.85;;;;;;;;;;5105134;28;20103;-79
2023/03/25 09:18:57;;;;;;;4.05;0.80;;;;;;;;;;5083179;28;20040;-79
2023/03/25 09:21:22;;;;;;;4.65;1.00;;;;;;;;;;5111407;28;20044;-79
2023/03/25 09:23:48;;;;;;;2.97;0.77;;;;;;;;;;5106472;28;20054;-79
2023/03/25 09:26:13;;;;;;;3.15;0.70;;;;;;;;;;5107359;28;20432;-78
2023/03/25 09:28:39;;;;;;;5.28;1.45;;;;;;;;;;5106440;28;20467;-79
2023/03/25 09:31:04;;;;;;;7.43;1.05;;;;;;;;;;5105933;28;20039;-79
2023/03/25 09:33:30;;;;;;;5.00;0.90;;;;;;;;;;5111178;28;20471;-78
2023/03/25 09:35:56;;;;;;;6.10;1.23;;;;;;;;;;5109010;28;20044;-78
2023/03/25 09:38:21;;;;;;;4.40;1.20;;;;;;;;;;5102756;28;20032;-78
2023/03/25 09:40:47;;;;;;;6.20;0.98;;;;;;;;;;5104222;28;20372;-79
2023/03/25 09:43:30;;;;;;;6.47;1.50;;;;;;;;;;5113261;28;20039;-79
2023/03/25 09:45:57;;;;;;;3.70;0.90;;;;;;;;;;5111145;28;20115;-78
2023/03/25 09:48:36;;;;;;;7.28;1.02;;;;;;;;;;5099615;28;20423;-78
2023/03/25 09:51:05;;;;;;;7.38;1.25;;;;;;;;;;5110622;28;20039;-79
2023/03/25 09:53:35;;;;;;;4.95;1.00;;;;;;;;;;5100233;28;20043;-78
2023/03/25 09:56:02;;;;;;;3.88;1.13;;;;;;;;;;5111447;28;20047;-78
2023/03/25 09:58:27;;;;;;;6.40;1.45;;;;;;;;;;5112122;28;20423;-79
2023/03/25 10:01:11;;;;;;;7.80;1.40;;;;;;;;;;5112464;28;20040;-79
2023/03/25 10:03:45;;;;;;;4.35;1.40;;;;;;;;;;5099740;28;20071;-78
2023/03/25 10:06:12;;;;;;;6.60;1.33;;;;;;;;;;5100065;28;20372;-78
2023/03/25 10:09:12;;;;;;;12.02;1.10;;;;;;;;;;5103134;28;20054;-79
2023/03/25 10:11:52;;;;;;;3.38;0.80;;;;;;;;;;5100867;28;20100;-79
2023/03/25 10:14:26;;;;;;;8.52;1.33;;;;;;;;;;5104756;28;20043;-79
2023/03/25 10:17:28;;;;;;;2.28;0.88;;;;;;;;;;5104021;28;20084;-78
2023/03/25 10:20:10;;;;;;;4.18;0.90;;;;;;;;;;5109673;28;20032;-78
2023/03/25 10:22:41;;;;;;;9.35;1.13;;;;;;;;;;5110533;28;20493;-78
2023/03/25 10:25:15;;;;;;;4.80;0.93;;;;;;;;;;5113172;28;20130;-79
2023/03/25 10:27:44;;;;;;;;;;;;;;;;;;5111372;28;20031;-79
2023/03/25 10:30:20;;;;;;;2.35;0.60;;;;;;;;;;5110317;28;19916;-80
2023/03/25 10:32:49;;;;;;;2.58;0.88;;;;;;;;;;5115792;28;20040;-78
2023/03/25 10:35:19;;;;;;;3.50;0.73;;;;;;;;;;5116748;28;20039;-79
2023/03/25 10:37:46;;;;;;;10.57;1.00;;;;;;;;;;5115664;28;20039;-79
2023/03/25 10:40:24;;;;;;;4.13;1.10;;;;;;;;;;5115897;28;20452;-79
2023/03/25 10:43:09;;;;;;;4.32;1.00;;;;;;;;;;5109301;28;20531;-79
2023/03/25 10:45:34;;;;;;;5.75;0.90;;;;;;;;;;5097303;28;20085;-79
2023/03/25 10:48:23;;;;;;;2.83;0.80;;;;;;;;;;5112748;28;20031;-79
2023/03/25 10:50:50;;;;;;;3.80;0.75;;;;;;;;;;5112769;28;20035;-79
2023/03/25 10:53:23;;;;;;;6.15;1.60;;;;;;;;;;5100610;28;20039;-78
2023/03/25 10:55:54;;;;;;;11.88;4.93;;;;;;;;;;5114872;28;20112;-79
2023/03/25 10:58:20;;;;;;;2.30;0.68;;;;;;;;;;5115977;28;20042;-79
2023/03/25 11:00:46;;;;;;;4.15;1.15;;;;;;;;;;5116977;28;20035;-79
2023/03/25 11:03:21;;;;;;;7.25;1.17;;;;;;;;;;5117086;28;20035;-79
2023/03/25 11:05:47;;;;;;;5.78;1.20;;;;;;;;;;5115141;28;20035;-79
2023/03/25 11:08:14;;;;;;;7.18;1.25;;;;;;;;;;5115512;28;20426;-79
2023/03/25 11:10:40;;;;;;;6.97;1.60;;;;;;;;;;5115227;28;20374;-79
2023/03/25 11:13:11;;;;;;;13.80;5.75;;;;;;;;;;5116986;28;20043;-79
2023/03/25 11:15:38;;;;;;;12.50;6.32;;;;;;;;;;5115607;28;20030;-79
2023/03/25 11:18:15;;;;;;;3.45;1.30;;;;;;;;;;5115532;28;20031;-79
2023/03/25 11:20:49;;;;;;;4.78;1.48;;;;;;;;;;5105779;28;20039;-79
2023/03/25 11:23:21;;;;;;;7.45;1.60;;;;;;;;;;5098241;28;20379;-79
2023/03/25 11:25:47;;;;;;;6.65;1.48;;;;;;;;;;5115237;28;20036;-79
2023/03/25 11:28:26;;;;;;;10.27;1.17;;;;;;;;;;5115426;28;20071;-79
2023/03/25 11:31:20;;;;;;;24.02;11.00;;;;;;;;;;5115245;28;20047;-78
2023/03/25 11:34:02;;;;;;;12.00;3.97;;;;;;;;;;5095021;28;20074;-79
2023/03/25 11:36:29;;;;;;;17.02;6.78;;;;;;;;;;5113005;28;20063;-79
2023/03/25 11:39:13;;;;;;;3.55;1.52;;;;;;;;;;5116252;28;20065;-79
2023/03/25 11:41:38;;;;;;;6.10;2.90;;;;;;;;;;5105901;28;20047;-79
2023/03/25 11:44:04;;;;;;;4.40;1.98;;;;;;;;;;5116185;28;20028;-79
2023/03/25 11:46:32;;;;;;;2.67;0.80;;;;;;;;;;5114887;28;20042;-79
2023/03/25 11:49:08;;;;;;;7.03;1.30;;;;;;;;;;5114689;28;20112;-79
2023/03/25 11:51:33;;;;;;;6.25;1.05;;;;;;;;;;5115960;28;20061;-79
2023/03/25 11:54:07;;;;;;;5.55;1.40;;;;;;;;;;5115508;28;20403;-78
2023/03/25 11:56:34;;;;;;;9.15;1.17;;;;;;;;;;5114625;28;20050;-79
2023/03/25 11:59:01;;;;;;;6.47;1.50;;;;;;;;;;5114644;28;20040;-79
2023/03/25 12:01:40;;;;;;;6.43;1.23;;;;;;;;;;5111752;28;20467;-79
2023/03/25 12:04:10;;;;;;;5.20;1.23;;;;;;;;;;5106213;28;20040;-79
2023/03/25 12:06:35;;;;;;;5.18;1.23;;;;;;;;;;5111472;28;20051;-79
2023/03/25 12:09:07;;;;;;;6.20;1.27;;;;;;;;;;5115712;28;20071;-79
2023/03/25 12:11:52;;;;;;;4.75;1.08;;;;;;;;;;5115749;28;20042;-79
2023/03/25 12:14:35;;;;;;;8.93;1.48;;;;;;;;;;5115327;28;20061;-79
2023/03/25 12:17:32;;;;;;;10.37;1.50;;;;;;;;;;5114174;28;20036;-79
2023/03/25 12:20:21;;;;;;;8.13;1.55;;;;;;;;;;5103437;28;20031;-79
2023/03/25 12:23:14;;;;;;;7.97;1.42;;;;;;;;;;5101902;28;20058;-79
2023/03/25 12:25:52;;;;;;;7.93;1.25;;;;;;;;;;5098079;28;20043;-79
2023/03/25 12:28:30;;;;;;;6.65;1.10;;;;;;;;;;5103659;28;20035;-79
2023/03/25 12:31:11;;;;;;;7.55;2.05;;;;;;;;;;5111490;28;20043;-79
2023/03/25 12:34:10;;;;;;;10.82;1.88;;;;;;;;;;5115149;28;20059;-79
2023/03/25 12:36:39;;;;;;;7.68;1.30;;;;;;;;;;5113848;28;20078;-79
2023/03/25 12:39:13;;;;;;;8.45;1.70;;;;;;;;;;5113961;28;20040;-79
2023/03/25 12:41:45;;;;;;;9.43;1.33;;;;;;;;;;5114180;27;20043;-79
2023/03/25 12:44:55;;;;;;;9.65;1.70;;;;;;;;;;5114036;28;20039;-79
2023/03/25 12:47:28;;;;;;;8.15;1.60;;;;;;;;;;5076666;28;20138;-79
2023/03/25 12:49:59;;;;;;;5.65;1.13;;;;;;;;;;5111357;28;20040;-79
2023/03/25 12:52:51;;;;;;;12.82;1.60;;;;;;;;;;5114823;28;20092;-79
2023/03/25 12:55:38;;;;;;;10.02;1.90;;;;;;;;;;5106063;28;20055;-79
2023/03/25 12:58:34;;;;;;;11.45;1.35;;;;;;;;;;5114560;28;20502;-79
2023/03/25 13:01:30;;;;;;;5.32;1.13;;;;;;;;;;5095188;28;20506;-79
2023/03/25 13:03:59;;;;;;;10.55;1.70;;;;;;;;;;5114483;28;20040;-79
2023/03/25 13:06:46;;;;;;;9.25;1.45;;;;;;;;;;5107027;28;20050;-79
2023/03/25 13:09:26;;;;;;;7.38;1.33;;;;;;;;;;5097027;28;20043;-79
2023/03/25 13:12:10;;;;;;;7.88;1.45;;;;;;;;;;5114517;28;20043;-79
2023/03/25 13:14:39;;;;;;;8.88;1.48;;;;;;;;;;5106862;28;20042;-79
2023/03/25 13:17:10;;;;;;;5.15;1.25;;;;;;;;;;5106074;28;20138;-79
2023/03/25 13:19:40;;;;;;;13.55;1.92;;;;;;;;;;5111065;28;20042;-79
2023/03/25 13:22:28;;;;;;;10.38;1.20;;;;;;;;;;5112041;28;20028;-79
2023/03/25 13:24:59;;;;;;;10.18;1.80;;;;;;;;;;5105806;28;20501;-79
2023/03/25 13:27:29;;;;;;;6.40;1.17;;;;;;;;;;5101538;28;20039;-79
2023/03/25 13:29:56;;;;;;;3.95;0.95;;;;;;;;;;5113058;28;20110;-79
2023/03/25 13:32:35;;;;;;;6.60;1.50;;;;;;;;;;5114332;28;20039;-79
2023/03/25 13:35:12;;;;;;;7.22;1.10;;;;;;;;;;5111278;28;20063;-79
2023/03/25 13:37:41;;;;;;;8.80;1.60;;;;;;;;;;5112923;28;20062;-79
2023/03/25 13:40:10;;;;;;;9.82;1.60;;;;;;;;;;5112651;28;20035;-79
2023/03/25 13:42:58;;;;;;;9.63;1.40;;;;;;;;;;5114142;28;20046;-79
2023/03/25 13:45:26;;;;;;;8.05;1.33;;;;;;;;;;5105261;28;20059;-79
2023/03/25 13:48:05;;;;;;;6.47;1.33;;;;;;;;;;5112039;28;20475;-79
2023/03/25 13:50:31;;;;;;;15.23;1.33;;;;;;;;;;5112570;28;20039;-78
2023/03/25 13:53:14;;;;;;;8.88;1.45;;;;;;;;;;5112782;28;20032;-79
2023/03/25 13:55:43;;;;;;;8.48;1.45;;;;;;;;;;5095947;28;20044;-79
2023/03/25 13:58:20;;;;;;;9.90;1.50;;;;;;;;;;5112237;28;20467;-79
2023/03/25 14:01:01;;;;;;;9.30;1.38;;;;;;;;;;5113802;28;20122;-79
2023/03/25 14:03:48;;;;;;;6.03;1.27;;;;;;;;;;5108778;28;20043;-79
2023/03/25 14:06:28;;;;;;;6.20;1.23;;;;;;;;;;5104769;28;20100;-79
2023/03/25 14:09:07;;;;;;;3.33;1.15;;;;;;;;;;5111061;28;20027;-79
2023/03/25 14:11:37;;;;;;;11.52;1.80;;;;;;;;;;5113525;28;20035;-79
2023/03/25 14:14:10;;;;;;;8.23;1.42;;;;;;;;;;5112566;28;20039;-79
2023/03/25 14:16:41;;;;;;;7.18;1.60;;;;;;;;;;5112329;28;20035;-79
2023/03/25 14:19:11;;;;;;;9.15;1.73;;;;;;;;;;5108318;28;20051;-79
2023/03/25 14:21:37;;;;;;;10.20;1.48;;;;;;;;;;5113034;28;20043;-79
2023/03/25 14:24:08;;;;;;;7.30;1.45;;;;;;;;;;5112357;28;20035;-79
2023/03/25 14:26:34;;;;;;;22.38;2.42;;;;;;;;;;5101183;28;20487;-79
2023/03/25 14:29:07;;;;;;;11.13;1.70;;;;;;;;;;5112160;28;20035;-79
2023/03/25 14:31:32;;;;;;;8.40;1.55;;;;;;;;;;5112553;28;20475;-79
2023/03/25 14:34:01;;;;;;;15.38;2.20;;;;;;;;;;5113542;28;20066;-79
2023/03/25 14:36:48;;;;;;;14.50;2.05;;;;;;;;;;5113205;28;20063;-79
2023/03/25 14:39:28;;;;;;;7.15;1.83;;;;;;;;;;5077165;28;20044;-79
2023/03/25 14:42:06;;;;;;;5.10;1.50;;;;;;;;;;5094041;28;20387;-78
2023/03/25 14:44:53;;;;;;;13.95;2.20;;;;;;;;;;5113042;28;20391;-79
2023/03/25 14:47:21;;;;;;;10.75;1.85;;;;;;;;;;5107262;28;20046;-79
2023/03/25 14:50:03;;;;;;;14.57;5.70;;;;;;;;;;5113363;28;20110;-78
2023/03/25 14:52:38;;;;;;;24.45;6.07;;;;;;;;;;5113130;28;20114;-79
2023/03/25 14:55:18;;;;;;;16.60;5.57;;;;;;;;;;5094899;28;20039;-79
2023/03/25 14:57:45;;;;;;;13.13;2.30;;;;;;;;;;5110802;28;20039;-79
2023/03/25 15:00:22;;;;;;;9.98;1.80;;;;;;;;;;5109319;28;20028;-79
2023/03/25 15:03:17;;;;;;;16.63;4.10;;;;;;;;;;5103980;28;20070;-79